Terminal Aerodrome Forecast
Issued by NWS

Home | Current Version | Previous Version | Text Only | Print | Product List | Glossary On
Versions: 1 2 3 4 5 6 7 8 9 10 11 12 13 14 15 16 17 18 19
000
FTUS43 KLSX 291500 AAA
TAFSUS
TAF AMD
KSUS 291555Z 2916/3012 29018G28KT P6SM OVC022
     FM291800 31015G25KT P6SM OVC035
     FM300000 33010KT P6SM BKN020=

USA.gov is the U.S. government's official web portal to all federal, state and local government web resources and services.